Time;durP1;ratioP1;P1;durP2;ratioP2;P2;SDS_P1;SDS_P2;PMS_P1;PMS_P2;Temp;Humidity;BMP_temperature;BMP_pressure;BME280_temperature;BME280_humidity;BME280_pressure;Samples;Min_cycle;Max_cycle;Signal;HPM_P1;HPM_P2
2022/10/07 00:00:50;;;;;;;5.47;1.90;;;9.20;99.90;;;;;;6119556;23;20013;-83
2022/10/07 00:03:16;;;;;;;5.70;1.65;;;9.20;99.90;;;;;;6118045;23;20347;-83
2022/10/07 00:05:42;;;;;;;13.02;3.60;;;9.20;99.90;;;;;;6118984;23;20152;-82
2022/10/07 00:08:07;;;;;;;10.00;1.90;;;9.20;99.90;;;;;;6118059;23;20020;-83
2022/10/07 00:10:40;;;;;;;11.32;2.03;;;9.10;99.90;;;;;;6118882;23;20006;-82
2022/10/07 00:13:08;;;;;;;5.10;1.70;;;9.10;99.90;;;;;;6117203;23;20428;-82
2022/10/07 00:15:35;;;;;;;6.15;1.38;;;9.10;99.90;;;;;;6117637;23;20021;-83
2022/10/07 00:18:01;;;;;;;10.27;1.55;;;9.10;99.90;;;;;;6117182;23;20088;-81
2022/10/07 00:20:26;;;;;;;7.97;2.00;;;9.10;99.90;;;;;;6117282;23;20068;-82
2022/10/07 00:22:52;;;;;;;5.38;1.60;;;9.10;99.90;;;;;;6118073;23;20009;-81
2022/10/07 00:25:18;;;;;;;8.77;1.92;;;9.00;99.90;;;;;;6118401;23;20005;-82
2022/10/07 00:27:44;;;;;;;8.55;2.15;;;9.00;99.90;;;;;;6117525;23;20002;-81
2022/10/07 00:30:10;;;;;;;11.07;2.45;;;8.90;99.90;;;;;;6117710;23;20071;-82
2022/10/07 00:32:36;;;;;;;3.70;1.83;;;8.90;99.90;;;;;;6117654;23;20002;-82
2022/10/07 00:35:01;;;;;;;9.02;2.72;;;8.80;99.90;;;;;;6117514;23;20017;-82
2022/10/07 00:37:27;;;;;;;6.82;1.88;;;8.80;99.90;;;;;;6117753;23;20006;-83
2022/10/07 00:39:52;;;;;;;5.13;1.77;;;8.80;99.90;;;;;;6118060;23;20001;-83
2022/10/07 00:42:18;;;;;;;11.55;2.55;;;8.80;99.90;;;;;;6117201;23;20496;-81
2022/10/07 00:44:45;;;;;;;4.55;1.83;;;8.80;99.90;;;;;;6118407;23;20089;-81
2022/10/07 00:47:32;;;;;;;4.80;1.73;;;8.90;99.90;;;;;;6117981;23;19998;-82
2022/10/07 00:50:12;;;;;;;5.07;1.83;;;8.90;99.90;;;;;;6118119;23;20010;-82
2022/10/07 00:52:46;;;;;;;4.72;1.50;;;8.90;99.90;;;;;;6117850;23;20331;-83
2022/10/07 00:55:16;;;;;;;6.53;2.22;;;8.90;99.90;;;;;;6118703;23;20009;-82
2022/10/07 00:57:50;;;;;;;12.85;2.45;;;8.90;99.90;;;;;;6117085;23;20476;-83
2022/10/07 01:00:16;;;;;;;12.85;2.42;;;8.80;99.90;;;;;;6118522;23;20010;-82
2022/10/07 01:02:42;;;;;;;7.78;1.75;;;8.80;99.90;;;;;;6117420;23;20081;-83
2022/10/07 01:05:09;;;;;;;6.80;2.97;;;8.60;99.90;;;;;;6118251;23;20044;-82
2022/10/07 01:07:37;;;;;;;10.38;1.88;;;8.60;99.90;;;;;;6116566;23;20006;-82
2022/10/07 01:10:04;;;;;;;5.68;1.80;;;8.60;99.90;;;;;;6118159;23;20017;-81
2022/10/07 01:12:56;;;;;;;7.90;1.80;;;8.60;99.90;;;;;;6117384;23;20052;-82
2022/10/07 01:15:49;;;;;;;12.18;3.42;;;8.60;99.90;;;;;;6117707;23;20002;-83
2022/10/07 01:18:24;;;;;;;5.82;1.90;;;8.50;99.90;;;;;;6115983;23;20006;-82
2022/10/07 01:21:01;;;;;;;7.78;1.95;;;8.50;99.90;;;;;;6118129;23;20440;-82
2022/10/07 01:23:50;;;;;;;5.07;2.30;;;8.40;99.90;;;;;;6117851;23;20034;-83
2022/10/07 01:26:40;;;;;;;9.00;2.03;;;8.50;99.90;;;;;;6116806;23;20013;-83
2022/10/07 01:29:20;;;;;;;7.40;1.90;;;8.50;99.90;;;;;;6118077;23;20059;-82
2022/10/07 01:32:02;;;;;;;8.65;1.90;;;8.40;99.90;;;;;;6118330;23;20006;-83
2022/10/07 01:34:36;;;;;;;3.45;1.58;;;8.40;99.90;;;;;;6118834;23;20009;-82
2022/10/07 01:37:05;;;;;;;5.90;1.83;;;8.40;99.90;;;;;;6119336;23;20002;-83
2022/10/07 01:39:41;;;;;;;8.55;2.20;;;8.40;99.90;;;;;;6117123;23;20028;-82
2022/10/07 01:42:07;;;;;;;6.38;2.08;;;8.30;99.90;;;;;;6119202;23;20002;-82
2022/10/07 01:44:34;;;;;;;4.30;1.80;;;8.30;99.90;;;;;;6118365;23;20420;-82
2022/10/07 01:47:00;;;;;;;8.95;1.70;;;8.30;99.90;;;;;;6119595;23;20434;-82
2022/10/07 01:49:25;;;;;;;4.68;1.85;;;8.20;99.90;;;;;;6118803;23;20010;-83
2022/10/07 01:52:14;;;;;;;10.73;2.42;;;8.20;99.90;;;;;;6119054;23;20008;-81
2022/10/07 01:55:14;;;;;;;12.02;1.80;;;8.20;99.90;;;;;;6117710;23;20077;-83
2022/10/07 01:57:50;;;;;;;4.90;1.90;;;8.10;99.90;;;;;;6117923;23;20006;-83
2022/10/07 02:00:17;;;;;;;7.03;2.03;;;8.10;99.90;;;;;;6119741;23;20006;-83
2022/10/07 02:03:20;;;;;;;9.20;1.95;;;8.10;99.90;;;;;;6116395;23;20379;-82
2022/10/07 02:05:48;;;;;;;5.72;1.75;;;8.10;99.90;;;;;;6119022;23;20012;-83
2022/10/07 02:08:37;;;;;;;8.57;1.58;;;8.10;99.90;;;;;;6117487;23;20018;-83
2022/10/07 02:11:10;;;;;;;6.65;2.10;;;8.10;99.90;;;;;;6119024;23;20006;-83
2022/10/07 02:14:00;;;;;;;5.55;1.83;;;8.10;99.90;;;;;;6116673;23;20327;-82
2022/10/07 02:16:36;;;;;;;7.97;1.95;;;8.10;99.90;;;;;;6119286;23;20025;-83
2022/10/07 02:19:07;;;;;;;5.13;2.10;;;8.10;99.90;;;;;;6117496;23;20222;-83
2022/10/07 02:21:35;;;;;;;4.88;1.70;;;8.10;99.90;;;;;;6118071;22;20025;-82
2022/10/07 02:24:02;;;;;;;10.25;2.00;;;8.10;99.90;;;;;;6123420;23;20025;-82
2022/10/07 02:26:31;;;;;;;5.40;2.08;;;8.10;99.90;;;;;;6118689;23;20005;-83
2022/10/07 02:29:00;;;;;;;8.23;1.70;;;8.00;99.90;;;;;;6117631;23;20045;-83
2022/10/07 02:31:30;;;;;;;5.65;1.83;;;8.00;99.90;;;;;;6119325;23;20002;-83
2022/10/07 02:33:57;;;;;;;5.55;2.10;;;8.00;99.90;;;;;;6116654;23;20002;-83
2022/10/07 02:36:34;;;;;;;9.98;2.80;;;7.90;99.90;;;;;;6118704;23;20012;-82
2022/10/07 02:39:00;;;;;;;5.82;2.10;;;7.80;99.90;;;;;;6118475;23;20013;-82
2022/10/07 02:41:50;;;;;;;7.32;1.90;;;7.80;99.90;;;;;;6119709;23;20002;-83
2022/10/07 02:44:24;;;;;;;5.70;2.00;;;7.70;99.90;;;;;;6117579;23;20427;-82
2022/10/07 02:47:06;;;;;;;6.88;1.80;;;7.70;99.90;;;;;;6118402;23;20029;-81
2022/10/07 02:49:38;;;;;;;5.55;1.73;;;7.60;99.90;;;;;;6117826;23;20014;-82
2022/10/07 02:52:12;;;;;;;10.88;3.67;;;7.60;99.90;;;;;;6118928;23;20009;-83
2022/10/07 02:54:47;;;;;;;12.85;4.43;;;7.60;99.90;;;;;;6118067;23;20048;-82
2022/10/07 02:57:16;;;;;;;17.60;6.78;;;7.60;99.90;;;;;;6117725;23;20423;-83
2022/10/07 02:59:47;;;;;;;19.50;8.25;;;7.50;99.90;;;;;;6116868;23;20010;-82
2022/10/07 03:02:19;;;;;;;22.85;6.68;;;7.50;99.90;;;;;;6118372;23;20055;-83
2022/10/07 03:04:45;;;;;;;17.65;7.47;;;7.50;99.90;;;;;;6118171;23;20005;-83
2022/10/07 03:07:12;;;;;;;15.43;6.90;;;7.50;99.90;;;;;;6118331;23;20002;-82
2022/10/07 03:09:38;;;;;;;17.23;6.07;;;7.50;99.90;;;;;;6118035;23;20087;-82
2022/10/07 03:12:04;;;;;;;13.18;4.80;;;7.50;99.90;;;;;;6116991;23;20420;-82
2022/10/07 03:14:30;;;;;;;11.38;4.20;;;7.40;99.90;;;;;;6117282;23;20029;-83
2022/10/07 03:16:56;;;;;;;8.50;3.47;;;7.50;99.90;;;;;;6117755;23;20542;-82
2022/10/07 03:19:22;;;;;;;8.75;3.15;;;7.40;99.90;;;;;;6117600;23;20013;-82
2022/10/07 03:21:47;;;;;;;13.88;3.42;;;7.40;99.90;;;;;;6117994;23;20052;-83
2022/10/07 03:24:13;;;;;;;12.40;3.05;;;7.50;99.90;;;;;;6117491;23;20006;-82
2022/10/07 03:26:42;;;;;;;20.33;2.60;;;7.60;99.90;;;;;;6118200;23;19998;-83
2022/10/07 03:29:09;;;;;;;24.20;4.15;;;7.70;99.90;;;;;;6117132;23;20022;-83
2022/10/07 03:31:38;;;;;;;16.85;2.97;;;7.90;99.90;;;;;;6117089;23;20002;-82
2022/10/07 03:34:03;;;;;;;11.40;2.40;;;8.20;99.90;;;;;;6115884;23;20009;-80
2022/10/07 03:36:29;;;;;;;8.57;1.95;;;8.40;99.90;;;;;;6116544;23;20036;-81
2022/10/07 03:38:55;;;;;;;16.85;2.42;;;8.70;99.90;;;;;;6116064;23;20440;-82
2022/10/07 03:41:21;;;;;;;4.97;2.15;;;8.90;99.90;;;;;;6117537;23;20017;-83
2022/10/07 03:43:46;;;;;;;13.25;2.65;;;9.10;99.90;;;;;;6117496;23;20080;-84
2022/10/07 03:46:12;;;;;;;7.93;2.20;;;9.20;99.90;;;;;;6117672;23;20486;-83
2022/10/07 03:48:38;;;;;;;9.32;1.90;;;9.30;99.90;;;;;;6117918;23;20018;-84
2022/10/07 03:51:04;;;;;;;13.30;2.50;;;9.30;99.90;;;;;;6116429;23;20471;-81
2022/10/07 03:53:30;;;;;;;10.27;3.15;;;9.40;99.90;;;;;;6115024;23;20002;-83
2022/10/07 03:55:56;;;;;;;14.63;2.25;;;9.40;99.90;;;;;;6115215;23;20055;-80
2022/10/07 03:58:22;;;;;;;21.80;2.28;;;9.40;99.90;;;;;;6114393;23;20033;-83
2022/10/07 04:00:48;;;;;;;8.80;1.95;;;9.40;99.90;;;;;;6115665;23;20014;-83
2022/10/07 04:03:15;;;;;;;11.98;1.85;;;9.40;99.90;;;;;;6114372;23;20002;-83
2022/10/07 04:05:41;;;;;;;11.65;2.35;;;9.50;99.90;;;;;;6116618;23;20085;-83
2022/10/07 04:08:09;;;;;;;14.35;3.40;;;9.60;99.90;;;;;;6116149;23;20477;-82
2022/10/07 04:10:35;;;;;;;12.68;2.38;;;9.70;99.90;;;;;;6114945;23;20002;-83
2022/10/07 04:13:01;;;;;;;16.02;2.75;;;9.80;99.90;;;;;;6115017;23;20002;-83
2022/10/07 04:15:26;;;;;;;13.70;2.85;;;9.80;99.90;;;;;;6115441;23;20089;-83
2022/10/07 04:17:58;;;;;;;8.50;2.13;;;9.90;99.90;;;;;;6114137;23;20486;-83
2022/10/07 04:20:25;;;;;;;6.78;2.38;;;9.90;99.90;;;;;;6117475;23;20091;-83
2022/10/07 04:22:56;;;;;;;13.90;1.98;;;10.00;99.90;;;;;;6117224;23;20056;-79
2022/10/07 04:25:33;;;;;;;13.73;2.38;;;10.00;99.90;;;;;;6117794;23;19998;-83
2022/10/07 04:28:05;;;;;;;16.77;3.22;;;9.90;99.90;;;;;;6117573;23;20017;-83
2022/10/07 04:30:36;;;;;;;8.48;2.00;;;10.00;99.90;;;;;;6117099;23;19998;-82
2022/10/07 04:33:03;;;;;;;9.48;2.00;;;10.00;99.90;;;;;;6116008;23;20044;-81
2022/10/07 04:35:29;;;;;;;5.75;1.58;;;9.90;99.90;;;;;;6114223;23;20036;-83
2022/10/07 04:37:58;;;;;;;15.30;2.03;;;9.90;99.90;;;;;;6116224;23;20036;-80
2022/10/07 04:40:24;;;;;;;14.20;2.75;;;9.90;99.90;;;;;;6117046;23;20002;-81
2022/10/07 04:45:37;;;;;;;9.35;2.38;;;9.90;99.90;;;;;;6111334;23;20470;-82
2022/10/07 04:48:06;;;;;;;9.85;2.75;;;9.90;99.90;;;;;;6113117;23;20074;-83
2022/10/07 04:50:37;;;;;;;13.25;2.45;;;9.80;99.90;;;;;;6114077;23;20066;-82
2022/10/07 04:53:07;;;;;;;9.02;2.03;;;9.80;99.90;;;;;;6115357;23;20447;-84
2022/10/07 04:55:37;;;;;;;18.60;3.17;;;9.90;99.90;;;;;;6117538;23;20009;-84
2022/10/07 04:58:03;;;;;;;8.20;1.85;;;10.00;99.90;;;;;;6115723;23;20093;-82
2022/10/07 05:00:28;;;;;;;13.25;2.83;;;10.00;99.90;;;;;;6117249;23;20073;-83
2022/10/07 05:02:54;;;;;;;14.15;2.28;;;10.10;99.90;;;;;;6117814;23;20376;-84
2022/10/07 05:05:20;;;;;;;11.90;1.90;;;10.20;99.90;;;;;;6116406;23;20366;-84
2022/10/07 05:07:50;;;;;;;13.20;2.47;;;10.20;99.90;;;;;;6117000;23;19998;-82
2022/10/07 05:10:16;;;;;;;11.00;2.22;;;10.30;99.90;;;;;;6116653;23;20013;-82
2022/10/07 05:12:44;;;;;;;8.80;2.15;;;10.30;99.90;;;;;;6117656;23;20431;-84
2022/10/07 05:15:10;;;;;;;12.55;2.50;;;10.40;99.90;;;;;;6116165;23;20132;-84
2022/10/07 05:17:37;;;;;;;19.40;2.42;;;10.40;99.90;;;;;;6117369;23;20049;-82
2022/10/07 05:20:12;;;;;;;13.07;2.28;;;10.40;99.90;;;;;;6116105;22;20018;-83
2022/10/07 05:22:40;;;;;;;14.65;3.03;;;10.40;99.90;;;;;;6117014;23;20002;-83
2022/10/07 05:25:06;;;;;;;9.95;2.17;;;10.30;99.90;;;;;;6114245;23;20010;-83
2022/10/07 05:27:31;;;;;;;12.23;2.42;;;10.30;99.90;;;;;;6116270;23;20013;-83
2022/10/07 05:29:57;;;;;;;11.40;2.22;;;10.30;99.90;;;;;;6116481;23;20017;-83
2022/10/07 05:32:23;;;;;;;14.57;2.33;;;10.30;99.90;;;;;;6117592;23;20056;-81
2022/10/07 05:34:48;;;;;;;12.02;2.75;;;10.30;99.90;;;;;;6117346;23;20245;-84
2022/10/07 05:37:14;;;;;;;9.00;1.95;;;10.40;99.90;;;;;;6117221;23;20044;-84
2022/10/07 05:39:39;;;;;;;21.70;3.42;;;10.40;99.90;;;;;;6116631;23;20002;-82
2022/10/07 05:42:05;;;;;;;15.45;2.47;;;10.40;99.90;;;;;;6117329;23;20413;-83
2022/10/07 05:44:31;;;;;;;16.00;2.75;;;10.40;99.90;;;;;;6117199;23;20002;-83
2022/10/07 05:46:57;;;;;;;11.90;2.40;;;10.40;99.90;;;;;;6116831;23;20430;-84
2022/10/07 05:49:23;;;;;;;10.35;2.50;;;10.40;99.90;;;;;;6115334;23;20021;-83
2022/10/07 05:51:50;;;;;;;12.80;2.00;;;10.50;99.90;;;;;;6117225;23;20017;-83
2022/10/07 05:54:16;;;;;;;15.65;2.55;;;10.60;99.90;;;;;;6117024;23;20028;-82
2022/10/07 05:56:44;;;;;;;20.30;3.00;;;10.50;99.90;;;;;;6115852;23;20491;-83
2022/10/07 05:59:10;;;;;;;9.90;2.63;;;10.50;99.90;;;;;;6116747;23;20006;-83
2022/10/07 06:01:36;;;;;;;14.82;2.45;;;10.60;99.90;;;;;;6117485;23;20056;-83
2022/10/07 06:04:02;;;;;;;12.57;2.20;;;10.60;99.90;;;;;;6113195;23;20061;-84
2022/10/07 06:06:30;;;;;;;23.10;3.13;;;10.60;99.90;;;;;;6115021;23;20466;-83
2022/10/07 06:13:06;;;;;;;13.70;2.40;;;10.70;99.90;;;;;;6115707;23;20017;-83
2022/10/07 06:14:29;;;;;;;16.15;2.25;;;10.80;99.90;;;;;;6118304;23;20008;-83
2022/10/07 06:16:55;;;;;;;16.02;2.35;;;10.90;99.90;;;;;;6118661;23;20006;-82
2022/10/07 06:19:23;;;;;;;11.30;1.95;;;10.90;99.90;;;;;;6115893;22;20005;-84
2022/10/07 06:21:51;;;;;;;8.27;1.67;;;10.90;99.90;;;;;;6118790;23;20025;-83
2022/10/07 06:24:18;;;;;;;8.32;1.83;;;11.00;99.90;;;;;;6117492;23;20088;-84
2022/10/07 06:26:43;;;;;;;7.72;1.83;;;11.00;99.90;;;;;;6116439;23;20006;-83
2022/10/07 06:29:09;;;;;;;9.40;2.10;;;11.00;99.90;;;;;;6117434;23;20071;-83
2022/10/07 06:31:35;;;;;;;12.00;2.55;;;10.90;99.90;;;;;;6117117;23;20001;-83
2022/10/07 06:34:00;;;;;;;7.15;2.25;;;11.00;99.90;;;;;;6117005;23;20002;-83
2022/10/07 06:36:26;;;;;;;12.00;2.30;;;11.00;99.90;;;;;;6119304;23;20063;-83
2022/10/07 06:38:53;;;;;;;15.63;2.53;;;11.00;99.90;;;;;;6116877;23;20010;-83
2022/10/07 06:41:20;;;;;;;13.20;2.20;;;11.00;99.90;;;;;;6117424;23;20002;-83
2022/10/07 06:43:55;;;;;;;10.45;2.08;;;11.10;99.90;;;;;;6116577;23;20401;-85
2022/10/07 06:46:20;;;;;;;19.38;2.55;;;11.20;99.90;;;;;;6119349;23;20021;-83
2022/10/07 06:48:52;;;;;;;14.38;2.60;;;11.20;99.90;;;;;;6118022;23;20427;-83
2022/10/07 06:51:19;;;;;;;9.50;2.10;;;11.20;99.90;;;;;;6118526;23;20006;-83
2022/10/07 06:53:49;;;;;;;13.32;2.15;;;11.30;99.90;;;;;;6117724;23;20010;-83
2022/10/07 06:56:14;;;;;;;10.63;2.25;;;11.40;99.90;;;;;;6118966;23;20006;-83
2022/10/07 06:58:48;;;;;;;15.18;2.53;;;11.40;99.90;;;;;;6118207;23;20010;-83
2022/10/07 07:01:14;;;;;;;14.13;2.70;;;11.50;99.90;;;;;;6118969;23;20010;-82
2022/10/07 07:03:43;;;;;;;15.55;2.40;;;11.50;99.90;;;;;;6116963;23;20006;-83
2022/10/07 07:06:09;;;;;;;10.93;1.90;;;11.60;99.90;;;;;;6118809;23;20182;-82
2022/10/07 07:08:36;;;;;;;9.23;1.77;;;11.50;99.90;;;;;;6114911;23;20017;-83
2022/10/07 07:13:55;;;;;;;11.98;2.22;;;11.60;99.90;;;;;;6117303;23;20040;-83
2022/10/07 07:16:23;;;;;;;16.27;2.63;;;11.70;99.90;;;;;;6117236;23;20006;-82
2022/10/07 07:18:57;;;;;;;13.75;2.30;;;11.80;99.90;;;;;;6115196;23;20335;-83
2022/10/07 07:21:24;;;;;;;12.88;2.53;;;11.80;99.90;;;;;;6118233;23;20529;-84
2022/10/07 07:23:50;;;;;;;10.80;1.77;;;11.80;99.90;;;;;;6117654;23;20002;-83
2022/10/07 07:26:17;;;;;;;9.15;1.60;;;11.80;99.90;;;;;;6118799;23;20013;-83
2022/10/07 07:28:43;;;;;;;10.35;1.95;;;12.00;99.90;;;;;;6116443;23;20253;-83
2022/10/07 07:31:11;;;;;;;12.65;1.55;;;12.00;99.90;;;;;;6117618;23;19998;-83
2022/10/07 07:34:00;;;;;;;13.45;1.90;;;12.00;99.90;;;;;;6116082;23;19998;-82
2022/10/07 07:36:28;;;;;;;6.82;2.17;;;12.10;99.90;;;;;;6116518;23;20527;-84
2022/10/07 07:39:04;;;;;;;13.88;1.90;;;12.20;99.90;;;;;;6114072;23;20354;-82
2022/10/07 07:41:32;;;;;;;11.95;2.83;;;12.30;99.90;;;;;;6117500;23;20002;-84
2022/10/07 07:43:59;;;;;;;9.82;1.88;;;12.30;99.90;;;;;;6117575;23;19999;-83
2022/10/07 07:46:28;;;;;;;19.50;2.65;;;12.40;99.90;;;;;;6118717;23;19998;-83
2022/10/07 07:48:55;;;;;;;12.65;2.20;;;12.50;99.90;;;;;;6117554;23;20014;-83
2022/10/07 07:51:21;;;;;;;11.80;2.53;;;12.50;99.90;;;;;;6119327;23;20056;-83
2022/10/07 07:53:50;;;;;;;8.70;1.92;;;12.50;99.90;;;;;;6117990;23;20002;-83
2022/10/07 07:56:16;;;;;;;10.60;1.88;;;12.50;99.90;;;;;;6118812;23;20002;-83
2022/10/07 07:58:42;;;;;;;14.52;2.17;;;12.60;99.90;;;;;;6117985;23;20002;-83
2022/10/07 08:01:14;;;;;;;11.68;2.17;;;12.60;99.90;;;;;;6118869;23;20121;-82
2022/10/07 08:03:47;;;;;;;9.35;1.75;;;12.60;99.90;;;;;;6117325;23;20016;-82
2022/10/07 08:06:16;;;;;;;8.82;1.75;;;12.50;99.90;;;;;;6118752;23;20025;-84
2022/10/07 08:08:42;;;;;;;14.82;2.78;;;12.60;99.90;;;;;;6117756;23;20022;-83
2022/10/07 08:11:08;;;;;;;9.52;1.70;;;12.70;99.90;;;;;;6118699;23;20037;-81
2022/10/07 08:13:34;;;;;;;10.60;2.08;;;12.80;99.90;;;;;;6118831;23;20006;-82
2022/10/07 08:16:03;;;;;;;14.93;2.58;;;12.80;99.90;;;;;;6117754;23;20002;-83
2022/10/07 08:18:32;;;;;;;10.20;2.28;;;13.00;99.90;;;;;;6118725;23;20081;-84
2022/10/07 08:21:00;;;;;;;13.55;2.40;;;13.00;99.90;;;;;;6117200;23;20452;-85
2022/10/07 08:23:28;;;;;;;11.52;1.92;;;13.10;99.90;;;;;;6118378;23;20081;-83
2022/10/07 08:25:58;;;;;;;14.13;2.10;;;13.30;99.90;;;;;;6117804;23;20049;-82
2022/10/07 08:28:24;;;;;;;13.05;1.58;;;13.40;99.90;;;;;;6118269;23;20085;-83
2022/10/07 08:30:50;;;;;;;14.73;2.42;;;13.40;99.90;;;;;;6117600;23;20431;-83
2022/10/07 08:33:17;;;;;;;16.58;2.45;;;13.40;99.90;;;;;;6116336;23;20048;-84
2022/10/07 08:35:49;;;;;;;16.80;3.35;;;13.40;99.90;;;;;;6118013;23;20010;-83
2022/10/07 08:38:15;;;;;;;14.23;2.38;;;13.50;99.90;;;;;;6118339;23;20024;-83
2022/10/07 08:41:05;;;;;;;9.35;1.70;;;13.50;99.90;;;;;;6117094;23;20473;-82
2022/10/07 08:43:32;;;;;;;10.35;2.05;;;13.50;99.90;;;;;;6118583;23;20005;-82
2022/10/07 08:45:59;;;;;;;14.43;1.45;;;13.60;99.90;;;;;;6117377;23;20573;-81
2022/10/07 08:48:31;;;;;;;12.05;2.13;;;13.70;99.90;;;;;;6118421;23;20343;-83
2022/10/07 08:51:18;;;;;;;10.40;1.98;;;13.80;99.90;;;;;;6117285;23;20014;-82
2022/10/07 08:53:49;;;;;;;13.57;2.13;;;13.90;99.90;;;;;;6118087;23;20419;-82
2022/10/07 08:56:22;;;;;;;25.08;2.67;;;13.90;99.90;;;;;;6118530;23;20001;-82
2022/10/07 08:59:09;;;;;;;9.07;1.85;;;14.00;99.90;;;;;;6117935;23;20009;-80
2022/10/07 09:01:44;;;;;;;16.23;3.30;;;14.10;99.90;;;;;;6118595;23;19998;-85
2022/10/07 09:04:34;;;;;;;7.22;1.65;;;14.10;99.90;;;;;;6117496;23;20009;-83
2022/10/07 09:07:26;;;;;;;14.07;1.88;;;14.00;99.90;;;;;;6118264;23;20078;-83
2022/10/07 09:09:59;;;;;;;9.13;2.35;;;14.00;99.90;;;;;;6114562;23;20093;-81
2022/10/07 09:12:37;;;;;;;11.23;1.90;;;14.20;99.90;;;;;;6113675;23;20002;-82
2022/10/07 09:15:05;;;;;;;6.30;1.80;;;14.30;99.90;;;;;;6112301;23;20006;-82
2022/10/07 09:17:41;;;;;;;7.43;1.40;;;14.40;99.90;;;;;;6114610;23;20009;-82
2022/10/07 09:20:18;;;;;;;12.05;1.73;;;14.40;99.90;;;;;;6116792;23;20376;-82
2022/10/07 09:22:53;;;;;;;12.50;1.73;;;14.50;99.90;;;;;;6117156;23;20010;-82
2022/10/07 09:25:20;;;;;;;;;;;14.50;99.90;;;;;;6116006;23;20032;-82
2022/10/07 09:27:51;;;;;;;11.13;1.88;;;14.50;99.90;;;;;;6117626;23;20230;-82
2022/10/07 09:30:18;;;;;;;11.57;1.92;;;14.60;99.90;;;;;;6116387;23;20079;-82
2022/10/07 09:32:55;;;;;;;10.48;2.28;;;14.70;99.90;;;;;;6117869;23;20080;-81
2022/10/07 09:35:24;;;;;;;5.70;1.75;;;14.70;99.90;;;;;;6116720;23;20487;-83
2022/10/07 09:38:08;;;;;;;8.57;2.03;;;14.70;99.90;;;;;;6118108;23;20001;-82
2022/10/07 09:43:34;;;;;;;13.15;1.77;;;14.80;99.90;;;;;;6118714;23;20013;-83
2022/10/07 09:46:01;;;;;;;4.82;1.23;;;14.90;99.90;;;;;;6116398;23;20429;-82
2022/10/07 09:48:32;;;;;;;11.07;1.60;;;14.90;99.90;;;;;;6116612;23;20335;-82
2022/10/07 09:51:20;;;;;;;5.43;1.58;;;15.00;99.90;;;;;;6117464;23;20075;-82
2022/10/07 09:54:05;;;;;;;10.10;1.77;;;15.10;99.90;;;;;;6118373;23;20493;-81
2022/10/07 09:56:36;;;;;;;11.55;2.05;;;15.20;99.90;;;;;;6117554;23;20006;-83
2022/10/07 09:59:23;;;;;;;8.90;1.98;;;15.20;99.90;;;;;;6117002;23;20331;-81
2022/10/07 10:01:56;;;;;;;11.90;1.92;;;15.30;99.90;;;;;;6118514;23;20010;-82
2022/10/07 10:04:52;;;;;;;12.55;2.17;;;15.30;99.90;;;;;;6116175;23;20462;-81
2022/10/07 10:07:26;;;;;;;8.27;1.38;;;15.40;99.90;;;;;;6113034;23;20055;-81
2022/10/07 10:10:25;;;;;;;11.05;1.80;;;15.40;99.90;;;;;;6116983;23;20033;-82
2022/10/07 10:12:53;;;;;;;9.45;1.88;;;15.40;99.90;;;;;;6119066;23;20002;-85
2022/10/07 10:15:22;;;;;;;7.70;2.08;;;15.40;99.90;;;;;;6118491;23;20025;-83
2022/10/07 10:17:51;;;;;;;10.45;1.70;;;15.50;99.90;;;;;;6119259;23;20006;-83
2022/10/07 10:20:22;;;;;;;11.50;1.83;;;15.50;99.90;;;;;;6118575;23;20068;-81
2022/10/07 10:22:51;;;;;;;12.43;1.95;;;15.50;99.90;;;;;;6119333;23;20089;-84
2022/10/07 10:28:20;;;;;;;13.98;1.98;;;15.60;99.90;;;;;;6115767;23;20398;-82
2022/10/07 10:31:01;;;;;;;8.40;1.50;;;15.70;99.90;;;;;;6116383;23;20010;-82
2022/10/07 10:33:32;;;;;;;5.88;1.70;;;15.80;99.90;;;;;;6115806;23;20084;-81
2022/10/07 10:36:18;;;;;;;11.18;2.10;;;15.80;99.90;;;;;;6117564;23;20002;-81
2022/10/07 10:39:05;;;;;;;6.40;1.52;;;15.70;98.70;;;;;;6116693;23;20006;-81
2022/10/07 10:41:54;;;;;;;5.32;1.52;;;15.70;99.90;;;;;;6116698;23;20492;-82
2022/10/07 10:44:35;;;;;;;12.57;1.88;;;15.70;99.90;;;;;;6112295;23;20006;-81
2022/10/07 10:47:29;;;;;;;7.07;1.63;;;15.70;99.90;;;;;;6112305;23;20017;-81
2022/10/07 10:50:41;;;;;;;11.65;1.80;;;15.80;99.70;;;;;;6114304;23;20014;-82
2022/10/07 10:53:18;;;;;;;9.00;1.60;;;15.80;97.10;;;;;;6048293;23;20051;-82
2022/10/07 10:56:08;;;;;;;9.88;2.10;;;15.90;98.00;;;;;;6115759;23;20093;-81
2022/10/07 10:58:59;;;;;;;10.55;2.38;;;15.90;98.60;;;;;;6117240;23;20331;-82
2022/10/07 11:01:31;;;;;;;8.05;1.83;;;15.90;99.90;;;;;;6116720;23;20006;-86
2022/10/07 11:04:34;;;;;;;7.38;1.33;;;16.00;99.90;;;;;;6117583;23;20037;-81
2022/10/07 11:07:08;;;;;;;3.65;1.20;;;16.10;97.60;;;;;;6118223;23;20459;-82
2022/10/07 11:09:44;;;;;;;10.52;2.13;;;16.10;99.80;;;;;;6115638;23;20053;-82
2022/10/07 11:12:35;;;;;;;8.15;1.48;;;16.20;96.00;;;;;;6118637;23;20029;-81
2022/10/07 11:15:20;;;;;;;18.67;3.17;;;16.10;95.20;;;;;;6117215;23;20037;-80
2022/10/07 11:17:59;;;;;;;8.07;1.75;;;16.30;94.20;;;;;;6117183;23;20041;-82
2022/10/07 11:20:33;;;;;;;8.40;1.70;;;16.20;92.20;;;;;;6116995;22;20026;-84
2022/10/07 11:23:08;;;;;;;6.72;1.67;;;16.30;93.20;;;;;;6117520;23;20057;-80
2022/10/07 11:25:41;;;;;;;8.68;1.35;;;16.40;90.00;;;;;;6117231;23;20041;-80
2022/10/07 11:28:22;;;;;;;9.70;1.85;;;16.50;86.30;;;;;;6117285;23;20056;-81
2022/10/07 11:31:09;;;;;;;6.03;1.35;;;16.40;83.80;;;;;;6117512;23;20029;-82
2022/10/07 11:33:51;;;;;;;11.85;3.55;;;16.40;91.00;;;;;;6118092;23;20006;-83
2022/10/07 11:36:50;;;;;;;9.68;1.80;;;16.50;87.00;;;;;;6116314;23;20041;-81
2022/10/07 11:39:16;;;;;;;5.95;1.40;;;16.50;86.90;;;;;;6088139;23;20439;-82
2022/10/07 11:42:14;;;;;;;7.47;1.50;;;16.60;85.40;;;;;;6117184;23;20006;-83
2022/10/07 11:44:40;;;;;;;9.10;2.03;;;16.60;86.20;;;;;;6117120;23;20374;-80
2022/10/07 11:47:13;;;;;;;10.13;1.50;;;16.70;88.90;;;;;;6118405;23;20002;-81
2022/10/07 11:50:17;;;;;;;5.68;1.48;;;16.70;81.70;;;;;;6114756;23;20017;-81
2022/10/07 11:52:46;;;;;;;7.55;1.45;;;16.80;83.20;;;;;;6067665;23;20006;-81
2022/10/07 11:55:22;;;;;;;6.78;1.95;;;16.90;78.10;;;;;;6117239;23;20013;-81
2022/10/07 11:57:56;;;;;;;3.53;1.38;;;16.90;76.90;;;;;;6116672;23;20010;-81
2022/10/07 12:00:33;;;;;;;13.73;1.85;;;16.90;76.70;;;;;;6115387;23;20009;-81
2022/10/07 12:03:32;;;;;;;5.93;1.40;;;17.00;78.20;;;;;;6115615;23;20002;-81
2022/10/07 12:06:08;;;;;;;6.63;1.67;;;17.00;78.60;;;;;;6070000;23;20025;-81
2022/10/07 12:08:38;;;;;;;5.05;1.20;;;17.10;81.40;;;;;;6117194;23;20040;-81
2022/10/07 12:11:15;;;;;;;9.68;1.40;;;17.10;80.70;;;;;;6116459;23;20010;-81
2022/10/07 12:14:42;;;;;;;9.15;1.95;;;17.10;81.60;;;;;;6117730;23;20017;-81
2022/10/07 12:17:21;;;;;;;12.00;1.63;;;17.20;79.90;;;;;;6026345;23;20083;-80
2022/10/07 12:20:26;;;;;;;9.45;1.45;;;17.30;74.40;;;;;;6105853;23;20462;-80
2022/10/07 12:23:25;;;;;;;4.82;1.27;;;17.40;78.80;;;;;;6114028;23;20014;-81
2022/10/07 12:25:55;;;;;;;9.02;1.73;;;17.40;76.80;;;;;;6117737;23;20055;-80
2022/10/07 12:28:42;;;;;;;6.13;1.55;;;17.40;83.10;;;;;;6117924;23;20002;-81
2022/10/07 12:31:13;;;;;;;7.95;2.03;;;17.50;81.50;;;;;;6117373;23;20024;-81
2022/10/07 12:33:45;;;;;;;5.55;1.23;;;17.60;82.20;;;;;;6116786;23;20010;-81
2022/10/07 12:36:20;;;;;;;12.30;1.63;;;17.70;77.30;;;;;;6116822;23;20002;-82
2022/10/07 12:38:55;;;;;;;7.70;1.20;;;17.80;75.60;;;;;;6116006;23;20465;-80
2022/10/07 12:41:37;;;;;;;8.32;1.23;;;17.80;79.60;;;;;;6116544;23;20009;-81
2022/10/07 12:44:36;;;;;;;10.70;1.55;;;17.90;74.00;;;;;;6114536;23;20389;-82
2022/10/07 12:47:10;;;;;;;3.85;1.30;;;17.90;77.30;;;;;;6116227;23;20017;-83
2022/10/07 12:49:47;;;;;;;5.35;1.15;;;17.90;83.80;;;;;;6117998;23;20018;-81
2022/10/07 12:52:33;;;;;;;6.82;2.15;;;18.00;86.30;;;;;;6115375;23;20332;-83
2022/10/07 12:55:07;;;;;;;5.60;1.30;;;18.10;81.00;;;;;;6117500;23;20327;-82
2022/10/07 12:57:51;;;;;;;7.53;1.45;;;18.20;78.80;;;;;;6119076;23;20085;-81
2022/10/07 13:00:24;;;;;;;5.43;1.67;;;18.20;78.40;;;;;;6117319;23;20351;-81
2022/10/07 13:03:28;;;;;;;8.05;1.38;;;18.30;81.70;;;;;;6118448;23;20002;-81
2022/10/07 13:06:33;;;;;;;10.20;1.55;;;18.20;83.00;;;;;;6043898;23;20360;-81
2022/10/07 13:09:38;;;;;;;9.50;1.35;;;18.30;79.50;;;;;;6118623;23;20064;-81
2022/10/07 13:12:22;;;;;;;6.20;1.67;;;18.30;82.40;;;;;;6117038;23;20084;-81
2022/10/07 13:15:16;;;;;;;4.57;1.27;;;18.40;81.30;;;;;;6116879;23;20032;-82
2022/10/07 13:18:13;;;;;;;6.10;1.30;;;18.40;79.80;;;;;;6116975;23;20092;-81
2022/10/07 13:21:01;;;;;;;6.07;1.70;;;18.30;85.80;;;;;;6076711;23;20017;-82
2022/10/07 13:23:29;;;;;;;9.48;1.23;;;18.30;90.30;;;;;;6119180;23;20010;-82
2022/10/07 13:26:00;;;;;;;6.82;1.40;;;18.30;90.20;;;;;;6120852;23;20006;-82
2022/10/07 13:28:54;;;;;;;11.00;1.25;;;18.30;91.70;;;;;;6119408;23;20014;-81
2022/10/07 13:31:23;;;;;;;5.68;1.58;;;18.40;82.20;;;;;;6116873;23;20085;-81